sensor_id;sensor_type;location;lat;lon;timestamp;pressure;altitude;pressure_sealevel;temperature;humidity
61697;BME280;47610;52.252;20.922;2023-02-28T00:04:24;101721.91;;;-3.11;100.00
61697;BME280;47610;52.252;20.922;2023-02-28T00:09:29;101718.73;;;-3.15;100.00
61697;BME280;47610;52.252;20.922;2023-02-28T00:14:33;101721.16;;;-3.18;100.00
61697;BME280;47610;52.252;20.922;2023-02-28T00:19:38;101722.57;;;-3.21;100.00
61697;BME280;47610;52.252;20.922;2023-02-28T00:24:42;101727.50;;;-3.26;100.00
61697;BME280;47610;52.252;20.922;2023-02-28T00:29:47;101731.67;;;-3.30;100.00
61697;BME280;47610;52.252;20.922;2023-02-28T00:34:51;101736.36;;;-3.36;100.00
61697;BME280;47610;52.252;20.922;2023-02-28T00:39:56;101735.11;;;-3.41;100.00
61697;BME280;47610;52.252;20.922;2023-02-28T00:45:00;101733.67;;;-3.47;100.00
61697;BME280;47610;52.252;20.922;2023-02-28T00:50:12;101732.82;;;-3.51;100.00
61697;BME280;47610;52.252;20.922;2023-02-28T00:55:17;101727.30;;;-3.53;100.00
61697;BME280;47610;52.252;20.922;2023-02-28T01:00:21;101727.71;;;-3.56;100.00
61697;BME280;47610;52.252;20.922;2023-02-28T01:05:25;101724.59;;;-3.60;100.00
61697;BME280;47610;52.252;20.922;2023-02-28T01:10:31;101728.07;;;-3.64;100.00
61697;BME280;47610;52.252;20.922;2023-02-28T01:15:36;101723.70;;;-3.69;100.00
61697;BME280;47610;52.252;20.922;2023-02-28T01:20:40;101728.64;;;-3.74;100.00
61697;BME280;47610;52.252;20.922;2023-02-28T01:25:45;101728.33;;;-3.78;100.00
61697;BME280;47610;52.252;20.922;2023-02-28T01:30:51;101722.42;;;-3.84;100.00
61697;BME280;47610;52.252;20.922;2023-02-28T01:36:01;101727.52;;;-3.85;100.00
61697;BME280;47610;52.252;20.922;2023-02-28T01:41:09;101728.52;;;-3.88;100.00
61697;BME280;47610;52.252;20.922;2023-02-28T01:46:19;101731.83;;;-3.92;100.00
61697;BME280;47610;52.252;20.922;2023-02-28T01:58:51;101736.45;;;-3.94;100.00
61697;BME280;47610;52.252;20.922;2023-02-28T02:03:59;101739.05;;;-3.98;100.00
61697;BME280;47610;52.252;20.922;2023-02-28T02:09:06;101733.87;;;-4.00;100.00
61697;BME280;47610;52.252;20.922;2023-02-28T02:14:40;101730.00;;;-4.03;100.00
61697;BME280;47610;52.252;20.922;2023-02-28T02:25:48;101730.75;;;-4.09;100.00
61697;BME280;47610;52.252;20.922;2023-02-28T02:31:17;101733.79;;;-4.11;100.00
61697;BME280;47610;52.252;20.922;2023-02-28T02:36:29;101732.30;;;-4.16;100.00
61697;BME280;47610;52.252;20.922;2023-02-28T02:41:45;101732.86;;;-4.20;100.00
61697;BME280;47610;52.252;20.922;2023-02-28T02:46:53;101731.76;;;-4.24;100.00
61697;BME280;47610;52.252;20.922;2023-02-28T02:52:04;101735.31;;;-4.27;100.00
61697;BME280;47610;52.252;20.922;2023-02-28T02:57:15;101742.90;;;-4.29;100.00
61697;BME280;47610;52.252;20.922;2023-02-28T03:02:22;101749.24;;;-4.32;100.00
61697;BME280;47610;52.252;20.922;2023-02-28T03:07:28;101746.36;;;-4.36;100.00
61697;BME280;47610;52.252;20.922;2023-02-28T03:12:40;101745.83;;;-4.38;100.00
61697;BME280;47610;52.252;20.922;2023-02-28T03:18:00;101747.21;;;-4.39;100.00
61697;BME280;47610;52.252;20.922;2023-02-28T03:23:13;101747.70;;;-4.40;100.00
61697;BME280;47610;52.252;20.922;2023-02-28T03:28:27;101748.02;;;-4.44;100.00
61697;BME280;47610;52.252;20.922;2023-02-28T03:33:38;101748.93;;;-4.46;100.00
61697;BME280;47610;52.252;20.922;2023-02-28T03:38:46;101753.17;;;-4.49;100.00
61697;BME280;47610;52.252;20.922;2023-02-28T03:44:05;101755.60;;;-4.52;100.00
61697;BME280;47610;52.252;20.922;2023-02-28T03:49:18;101750.47;;;-4.57;100.00
61697;BME280;47610;52.252;20.922;2023-02-28T03:54:27;101763.48;;;-4.56;100.00
61697;BME280;47610;52.252;20.922;2023-02-28T03:59:39;101761.28;;;-4.57;100.00
61697;BME280;47610;52.252;20.922;2023-02-28T04:04:45;101754.17;;;-4.62;100.00
61697;BME280;47610;52.252;20.922;2023-02-28T04:18:24;101764.00;;;-4.64;100.00
61697;BME280;47610;52.252;20.922;2023-02-28T04:23:28;101762.88;;;-4.65;100.00
61697;BME280;47610;52.252;20.922;2023-02-28T04:28:31;101764.28;;;-4.65;100.00
61697;BME280;47610;52.252;20.922;2023-02-28T04:33:37;101765.30;;;-4.66;100.00
61697;BME280;47610;52.252;20.922;2023-02-28T04:38:38;101762.75;;;-4.67;100.00
61697;BME280;47610;52.252;20.922;2023-02-28T04:43:42;101764.48;;;-4.69;100.00
61697;BME280;47610;52.252;20.922;2023-02-28T04:48:46;101768.41;;;-4.70;100.00
61697;BME280;47610;52.252;20.922;2023-02-28T04:53:52;101768.36;;;-4.72;100.00
61697;BME280;47610;52.252;20.922;2023-02-28T04:58:56;101770.94;;;-4.72;100.00
61697;BME280;47610;52.252;20.922;2023-02-28T05:04:01;101769.70;;;-4.73;100.00
61697;BME280;47610;52.252;20.922;2023-02-28T05:09:06;101774.84;;;-4.72;100.00
61697;BME280;47610;52.252;20.922;2023-02-28T05:14:14;101776.95;;;-4.72;100.00
61697;BME280;47610;52.252;20.922;2023-02-28T05:19:18;101785.80;;;-4.72;100.00
61697;BME280;47610;52.252;20.922;2023-02-28T05:24:23;101797.96;;;-4.71;100.00
61697;BME280;47610;52.252;20.922;2023-02-28T05:29:30;101807.55;;;-4.68;100.00
61697;BME280;47610;52.252;20.922;2023-02-28T05:34:33;101808.96;;;-4.62;100.00
61697;BME280;47610;52.252;20.922;2023-02-28T05:39:37;101816.10;;;-4.51;100.00
61697;BME280;47610;52.252;20.922;2023-02-28T05:44:42;101818.75;;;-4.38;100.00
61697;BME280;47610;52.252;20.922;2023-02-28T05:49:47;101819.77;;;-4.21;100.00
61697;BME280;47610;52.252;20.922;2023-02-28T05:54:49;101824.59;;;-4.02;100.00
61697;BME280;47610;52.252;20.922;2023-02-28T05:59:52;101833.48;;;-3.84;100.00
61697;BME280;47610;52.252;20.922;2023-02-28T06:04:57;101833.63;;;-3.65;100.00
61697;BME280;47610;52.252;20.922;2023-02-28T06:10:01;101842.44;;;-3.47;100.00
61697;BME280;47610;52.252;20.922;2023-02-28T06:15:09;101841.92;;;-3.29;100.00
61697;BME280;47610;52.252;20.922;2023-02-28T06:20:16;101842.33;;;-3.10;100.00
61697;BME280;47610;52.252;20.922;2023-02-28T06:25:20;101849.95;;;-2.93;100.00
61697;BME280;47610;52.252;20.922;2023-02-28T06:37:34;101847.13;;;-2.45;100.00
61697;BME280;47610;52.252;20.922;2023-02-28T06:42:37;101837.25;;;-2.29;100.00
61697;BME280;47610;52.252;20.922;2023-02-28T06:47:42;101830.38;;;-2.11;100.00
61697;BME280;47610;52.252;20.922;2023-02-28T06:52:46;101826.50;;;-1.92;100.00
61697;BME280;47610;52.252;20.922;2023-02-28T06:57:50;101816.95;;;-1.75;100.00
61697;BME280;47610;52.252;20.922;2023-02-28T07:02:53;101814.80;;;-1.58;100.00
61697;BME280;47610;52.252;20.922;2023-02-28T07:07:57;101811.99;;;-1.09;100.00
61697;BME280;47610;52.252;20.922;2023-02-28T07:13:01;101813.92;;;3.03;100.00
61697;BME280;47610;52.252;20.922;2023-02-28T07:18:09;101821.04;;;8.69;99.90
61697;BME280;47610;52.252;20.922;2023-02-28T07:23:14;101826.33;;;12.90;81.62
61697;BME280;47610;52.252;20.922;2023-02-28T07:28:18;101826.67;;;15.35;57.82
61697;BME280;47610;52.252;20.922;2023-02-28T07:33:22;101829.29;;;16.66;44.14
61697;BME280;47610;52.252;20.922;2023-02-28T07:38:26;101831.48;;;18.54;38.24
61697;BME280;47610;52.252;20.922;2023-02-28T07:43:30;101828.14;;;20.75;33.51
61697;BME280;47610;52.252;20.922;2023-02-28T07:48:37;101832.30;;;22.83;27.97
61697;BME280;47610;52.252;20.922;2023-02-28T07:53:40;101834.75;;;24.14;25.16
61697;BME280;47610;52.252;20.922;2023-02-28T07:58:48;101834.36;;;24.08;23.23
61697;BME280;47610;52.252;20.922;2023-02-28T08:03:51;101836.66;;;22.94;21.89
61697;BME280;47610;52.252;20.922;2023-02-28T08:08:57;101836.21;;;21.61;21.68
61697;BME280;47610;52.252;20.922;2023-02-28T08:14:00;101836.85;;;20.98;21.72
61697;BME280;47610;52.252;20.922;2023-02-28T08:19:05;101830.76;;;20.17;21.89
61697;BME280;47610;52.252;20.922;2023-02-28T08:24:10;101830.02;;;19.99;22.19
61697;BME280;47610;52.252;20.922;2023-02-28T08:29:14;101824.76;;;21.06;21.77
61697;BME280;47610;52.252;20.922;2023-02-28T08:34:19;101822.46;;;21.09;21.26
61697;BME280;47610;52.252;20.922;2023-02-28T08:39:27;101830.66;;;21.68;21.05
61697;BME280;47610;52.252;20.922;2023-02-28T08:44:31;101821.77;;;21.14;21.01
61697;BME280;47610;52.252;20.922;2023-02-28T08:56:43;101823.65;;;20.34;20.73
61697;BME280;47610;52.252;20.922;2023-02-28T09:01:49;101829.67;;;20.63;20.50
61697;BME280;47610;52.252;20.922;2023-02-28T09:06:53;101828.54;;;20.99;20.41
61697;BME280;47610;52.252;20.922;2023-02-28T09:11:57;101829.98;;;22.09;19.80
61697;BME280;47610;52.252;20.922;2023-02-28T09:17:01;101838.46;;;23.77;19.28
61697;BME280;47610;52.252;20.922;2023-02-28T09:22:04;101843.23;;;25.23;18.60
61697;BME280;47610;52.252;20.922;2023-02-28T09:27:08;101849.45;;;26.37;17.59
61697;BME280;47610;52.252;20.922;2023-02-28T09:32:11;101852.13;;;27.49;17.31
61697;BME280;47610;52.252;20.922;2023-02-28T09:37:16;101849.89;;;28.60;16.61
61697;BME280;47610;52.252;20.922;2023-02-28T09:42:26;101846.36;;;29.66;16.06
61697;BME280;47610;52.252;20.922;2023-02-28T09:47:36;101851.87;;;30.37;15.26
61697;BME280;47610;52.252;20.922;2023-02-28T09:52:45;101850.89;;;30.68;15.00
61697;BME280;47610;52.252;20.922;2023-02-28T09:57:52;101851.36;;;30.62;14.48
61697;BME280;47610;52.252;20.922;2023-02-28T10:03:13;101846.61;;;30.14;14.22
61697;BME280;47610;52.252;20.922;2023-02-28T10:08:27;101849.73;;;29.32;14.10
61697;BME280;47610;52.252;20.922;2023-02-28T10:13:37;101849.98;;;28.66;14.43
61697;BME280;47610;52.252;20.922;2023-02-28T10:18:50;101847.73;;;27.58;14.81
61697;BME280;47610;52.252;20.922;2023-02-28T10:24:03;101841.27;;;26.91;14.89
61697;BME280;47610;52.252;20.922;2023-02-28T10:29:13;101835.48;;;25.71;15.44
61697;BME280;47610;52.252;20.922;2023-02-28T10:34:18;101835.03;;;24.22;15.94
61697;BME280;47610;52.252;20.922;2023-02-28T10:39:40;101836.21;;;23.13;16.60
61697;BME280;47610;52.252;20.922;2023-02-28T10:44:46;101825.38;;;22.44;17.16
61697;BME280;47610;52.252;20.922;2023-02-28T10:49:53;101821.42;;;22.43;17.43
61697;BME280;47610;52.252;20.922;2023-02-28T10:55:21;101818.10;;;21.45;18.00
61697;BME280;47610;52.252;20.922;2023-02-28T11:00:33;101810.85;;;18.85;18.93
61697;BME280;47610;52.252;20.922;2023-02-28T11:05:36;101804.49;;;16.50;20.67
61697;BME280;47610;52.252;20.922;2023-02-28T11:15:54;101783.65;;;13.56;23.70
61697;BME280;47610;52.252;20.922;2023-02-28T11:21:01;101775.15;;;12.46;25.32
61697;BME280;47610;52.252;20.922;2023-02-28T11:26:07;101767.67;;;11.50;26.96
61697;BME280;47610;52.252;20.922;2023-02-28T11:31:20;101762.70;;;10.70;28.57
61697;BME280;47610;52.252;20.922;2023-02-28T11:36:28;101758.86;;;10.02;29.77
61697;BME280;47610;52.252;20.922;2023-02-28T11:41:57;101750.73;;;9.54;30.68
61697;BME280;47610;52.252;20.922;2023-02-28T11:47:13;101745.55;;;9.04;32.74
61697;BME280;47610;52.252;20.922;2023-02-28T11:52:33;101738.07;;;8.61;34.65
61697;BME280;47610;52.252;20.922;2023-02-28T12:03:22;101726.82;;;7.69;36.81
61697;BME280;47610;52.252;20.922;2023-02-28T12:08:51;101721.73;;;7.20;39.25
61697;BME280;47610;52.252;20.922;2023-02-28T12:14:29;101716.90;;;6.98;40.95
61697;BME280;47610;52.252;20.922;2023-02-28T12:19:45;101714.84;;;6.80;42.56
61697;BME280;47610;52.252;20.922;2023-02-28T12:30:38;101702.25;;;6.43;45.86
61697;BME280;47610;52.252;20.922;2023-02-28T12:35:49;101699.37;;;6.30;46.22
61697;BME280;47610;52.252;20.922;2023-02-28T12:40:56;101696.52;;;6.02;47.18
61697;BME280;47610;52.252;20.922;2023-02-28T12:46:09;101693.75;;;5.71;48.22
61697;BME280;47610;52.252;20.922;2023-02-28T12:51:19;101685.77;;;5.52;49.14
61697;BME280;47610;52.252;20.922;2023-02-28T12:56:42;101687.98;;;5.39;49.80
61697;BME280;47610;52.252;20.922;2023-02-28T13:13:12;101681.13;;;4.97;54.51
61697;BME280;47610;52.252;20.922;2023-02-28T13:18:35;101670.99;;;4.91;56.19
61697;BME280;47610;52.252;20.922;2023-02-28T13:24:03;101666.16;;;4.87;56.55
61697;BME280;47610;52.252;20.922;2023-02-28T13:34:26;101656.56;;;4.63;57.22
61697;BME280;47610;52.252;20.922;2023-02-28T13:39:51;101654.73;;;4.52;60.09
61697;BME280;47610;52.252;20.922;2023-02-28T13:45:23;101641.86;;;4.44;60.36
61697;BME280;47610;52.252;20.922;2023-02-28T13:50:37;101640.46;;;4.40;61.01
61697;BME280;47610;52.252;20.922;2023-02-28T13:55:48;101632.02;;;4.33;60.42
61697;BME280;47610;52.252;20.922;2023-02-28T14:01:07;101626.59;;;4.32;60.97
61697;BME280;47610;52.252;20.922;2023-02-28T14:06:25;101622.10;;;4.30;62.08
61697;BME280;47610;52.252;20.922;2023-02-28T14:11:37;101619.36;;;4.29;64.64
61697;BME280;47610;52.252;20.922;2023-02-28T14:16:46;101612.84;;;4.22;65.85
61697;BME280;47610;52.252;20.922;2023-02-28T14:22:05;101608.86;;;4.15;66.83
61697;BME280;47610;52.252;20.922;2023-02-28T14:27:53;101599.80;;;4.02;65.42
61697;BME280;47610;52.252;20.922;2023-02-28T14:33:24;101598.13;;;3.92;67.32
61697;BME280;47610;52.252;20.922;2023-02-28T14:38:35;101595.89;;;3.84;68.72
61697;BME280;47610;52.252;20.922;2023-02-28T14:43:52;101589.52;;;3.77;68.78
61697;BME280;47610;52.252;20.922;2023-02-28T14:48:56;101586.13;;;3.68;70.67
61697;BME280;47610;52.252;20.922;2023-02-28T14:54:02;101584.61;;;3.60;72.79
61697;BME280;47610;52.252;20.922;2023-02-28T14:59:29;101585.06;;;3.51;73.91
61697;BME280;47610;52.252;20.922;2023-02-28T15:04:33;101583.48;;;3.41;74.01
61697;BME280;47610;52.252;20.922;2023-02-28T15:09:36;101582.31;;;3.30;75.20
61697;BME280;47610;52.252;20.922;2023-02-28T15:14:44;101577.51;;;3.17;76.47
61697;BME280;47610;52.252;20.922;2023-02-28T15:19:50;101580.36;;;3.04;78.61
61697;BME280;47610;52.252;20.922;2023-02-28T15:24:58;101586.47;;;2.94;79.74
61697;BME280;47610;52.252;20.922;2023-02-28T15:30:13;101584.77;;;2.81;80.26
61697;BME280;47610;52.252;20.922;2023-02-28T15:35:29;101583.77;;;2.69;82.48
61697;BME280;47610;52.252;20.922;2023-02-28T15:40:40;101583.39;;;2.56;83.54
61697;BME280;47610;52.252;20.922;2023-02-28T15:54:18;101580.81;;;2.23;88.68
61697;BME280;47610;52.252;20.922;2023-02-28T15:59:25;101584.86;;;2.06;90.90
61697;BME280;47610;52.252;20.922;2023-02-28T16:04:30;101584.84;;;1.91;92.61
61697;BME280;47610;52.252;20.922;2023-02-28T16:09:35;101585.38;;;1.75;94.23
61697;BME280;47610;52.252;20.922;2023-02-28T16:19:53;101594.93;;;1.39;99.15
61697;BME280;47610;52.252;20.922;2023-02-28T16:25:01;101596.39;;;1.23;100.00
61697;BME280;47610;52.252;20.922;2023-02-28T16:30:13;101598.20;;;1.09;100.00
61697;BME280;47610;52.252;20.922;2023-02-28T16:35:21;101594.13;;;0.96;100.00
61697;BME280;47610;52.252;20.922;2023-02-28T16:40:29;101593.88;;;0.85;100.00
61697;BME280;47610;52.252;20.922;2023-02-28T16:45:36;101593.21;;;0.75;100.00
61697;BME280;47610;52.252;20.922;2023-02-28T16:50:41;101601.00;;;0.66;100.00
61697;BME280;47610;52.252;20.922;2023-02-28T16:55:47;101605.77;;;0.56;100.00
61697;BME280;47610;52.252;20.922;2023-02-28T17:00:51;101607.58;;;0.45;100.00
61697;BME280;47610;52.252;20.922;2023-02-28T17:05:55;101608.40;;;0.36;100.00
61697;BME280;47610;52.252;20.922;2023-02-28T17:10:59;101616.25;;;0.28;100.00
61697;BME280;47610;52.252;20.922;2023-02-28T17:16:05;101621.77;;;0.19;100.00
61697;BME280;47610;52.252;20.922;2023-02-28T17:21:15;101627.14;;;0.10;100.00
61697;BME280;47610;52.252;20.922;2023-02-28T17:26:21;101627.21;;;0.02;100.00
61697;BME280;47610;52.252;20.922;2023-02-28T17:31:30;101628.48;;;-0.07;100.00
61697;BME280;47610;52.252;20.922;2023-02-28T17:36:35;101628.75;;;-0.15;100.00
61697;BME280;47610;52.252;20.922;2023-02-28T17:41:39;101627.08;;;-0.21;100.00
61697;BME280;47610;52.252;20.922;2023-02-28T17:46:47;101616.17;;;-0.29;100.00
61697;BME280;47610;52.252;20.922;2023-02-28T17:51:52;101620.87;;;-0.35;100.00
61697;BME280;47610;52.252;20.922;2023-02-28T17:56:56;101613.94;;;-0.40;100.00
61697;BME280;47610;52.252;20.922;2023-02-28T18:01:58;101612.40;;;-0.46;100.00
61697;BME280;47610;52.252;20.922;2023-02-28T18:14:21;101590.63;;;-0.58;100.00
61697;BME280;47610;52.252;20.922;2023-02-28T18:19:26;101587.12;;;-0.65;100.00
61697;BME280;47610;52.252;20.922;2023-02-28T18:24:32;101574.20;;;-0.70;100.00
61697;BME280;47610;52.252;20.922;2023-02-28T18:29:39;101565.98;;;-0.74;100.00
61697;BME280;47610;52.252;20.922;2023-02-28T18:34:45;101571.58;;;-0.79;100.00
61697;BME280;47610;52.252;20.922;2023-02-28T18:39:51;101560.20;;;-0.87;100.00
61697;BME280;47610;52.252;20.922;2023-02-28T18:44:56;101553.72;;;-0.92;100.00
61697;BME280;47610;52.252;20.922;2023-02-28T18:49:59;101553.19;;;-0.97;100.00
61697;BME280;47610;52.252;20.922;2023-02-28T18:55:09;101549.24;;;-1.02;100.00
61697;BME280;47610;52.252;20.922;2023-02-28T19:00:22;101552.77;;;-1.06;100.00
61697;BME280;47610;52.252;20.922;2023-02-28T19:05:26;101556.34;;;-1.11;100.00
61697;BME280;47610;52.252;20.922;2023-02-28T19:10:29;101569.52;;;-1.16;100.00
61697;BME280;47610;52.252;20.922;2023-02-28T19:15:34;101582.73;;;-1.20;100.00
61697;BME280;47610;52.252;20.922;2023-02-28T19:20:36;101576.95;;;-1.28;100.00
61697;BME280;47610;52.252;20.922;2023-02-28T19:25:42;101589.48;;;-1.29;100.00
61697;BME280;47610;52.252;20.922;2023-02-28T19:30:50;101582.32;;;-1.34;100.00
61697;BME280;47610;52.252;20.922;2023-02-28T19:35:53;101583.95;;;-1.34;100.00
61697;BME280;47610;52.252;20.922;2023-02-28T19:41:04;101588.20;;;-1.37;100.00
61697;BME280;47610;52.252;20.922;2023-02-28T19:46:10;101594.20;;;-1.40;100.00
61697;BME280;47610;52.252;20.922;2023-02-28T19:51:17;101600.61;;;-1.43;100.00
61697;BME280;47610;52.252;20.922;2023-02-28T19:56:21;101606.18;;;-1.44;100.00
61697;BME280;47610;52.252;20.922;2023-02-28T20:01:24;101598.95;;;-1.46;100.00
61697;BME280;47610;52.252;20.922;2023-02-28T20:06:31;101599.65;;;-1.47;100.00
61697;BME280;47610;52.252;20.922;2023-02-28T20:11:35;101598.85;;;-1.51;100.00
61697;BME280;47610;52.252;20.922;2023-02-28T20:16:42;101605.45;;;-1.51;100.00
61697;BME280;47610;52.252;20.922;2023-02-28T20:21:46;101608.90;;;-1.51;100.00
61697;BME280;47610;52.252;20.922;2023-02-28T20:33:39;101609.17;;;-1.52;100.00
61697;BME280;47610;52.252;20.922;2023-02-28T20:38:45;101586.55;;;-1.55;100.00
61697;BME280;47610;52.252;20.922;2023-02-28T20:43:56;101575.02;;;-1.54;100.00
61697;BME280;47610;52.252;20.922;2023-02-28T20:49:00;101577.44;;;-1.53;100.00
61697;BME280;47610;52.252;20.922;2023-02-28T20:54:05;101586.55;;;-1.56;100.00
61697;BME280;47610;52.252;20.922;2023-02-28T20:59:10;101594.98;;;-1.61;100.00
61697;BME280;47610;52.252;20.922;2023-02-28T21:04:16;101585.42;;;-1.67;100.00
61697;BME280;47610;52.252;20.922;2023-02-28T21:09:21;101575.58;;;-1.75;100.00
61697;BME280;47610;52.252;20.922;2023-02-28T21:14:22;101581.60;;;-1.72;100.00
61697;BME280;47610;52.252;20.922;2023-02-28T21:19:29;101581.45;;;-1.74;100.00
61697;BME280;47610;52.252;20.922;2023-02-28T21:24:33;101577.60;;;-1.78;100.00
61697;BME280;47610;52.252;20.922;2023-02-28T21:29:38;101577.72;;;-1.81;100.00
61697;BME280;47610;52.252;20.922;2023-02-28T21:34:42;101575.13;;;-1.83;100.00
61697;BME280;47610;52.252;20.922;2023-02-28T21:39:45;101575.45;;;-1.85;100.00
61697;BME280;47610;52.252;20.922;2023-02-28T21:44:49;101571.38;;;-1.86;100.00
61697;BME280;47610;52.252;20.922;2023-02-28T21:49:53;101576.42;;;-1.84;100.00
61697;BME280;47610;52.252;20.922;2023-02-28T21:54:58;101577.01;;;-1.86;100.00
61697;BME280;47610;52.252;20.922;2023-02-28T22:00:02;101583.07;;;-1.87;100.00
61697;BME280;47610;52.252;20.922;2023-02-28T22:05:09;101574.59;;;-1.94;100.00
61697;BME280;47610;52.252;20.922;2023-02-28T22:10:20;101578.95;;;-1.94;100.00
61697;BME280;47610;52.252;20.922;2023-02-28T22:15:24;101577.91;;;-2.00;100.00
61697;BME280;47610;52.252;20.922;2023-02-28T22:20:27;101569.67;;;-2.05;100.00
61697;BME280;47610;52.252;20.922;2023-02-28T22:25:30;101568.14;;;-2.09;100.00
61697;BME280;47610;52.252;20.922;2023-02-28T22:30:35;101559.94;;;-2.11;100.00
61697;BME280;47610;52.252;20.922;2023-02-28T22:35:39;101554.46;;;-2.14;100.00
61697;BME280;47610;52.252;20.922;2023-02-28T22:40:44;101551.92;;;-2.16;100.00
61697;BME280;47610;52.252;20.922;2023-02-28T22:53:06;101555.20;;;-2.14;100.00
61697;BME280;47610;52.252;20.922;2023-02-28T22:58:10;101554.64;;;-2.17;100.00
61697;BME280;47610;52.252;20.922;2023-02-28T23:03:18;101554.71;;;-2.20;100.00
61697;BME280;47610;52.252;20.922;2023-02-28T23:08:24;101560.49;;;-2.24;100.00
61697;BME280;47610;52.252;20.922;2023-02-28T23:13:29;101573.23;;;-2.27;100.00
61697;BME280;47610;52.252;20.922;2023-02-28T23:18:32;101561.77;;;-2.41;100.00
61697;BME280;47610;52.252;20.922;2023-02-28T23:23:40;101581.05;;;-2.36;100.00
61697;BME280;47610;52.252;20.922;2023-02-28T23:28:43;101566.29;;;-2.39;100.00
61697;BME280;47610;52.252;20.922;2023-02-28T23:33:46;101554.27;;;-2.41;100.00
61697;BME280;47610;52.252;20.922;2023-02-28T23:38:50;101551.79;;;-2.42;100.00
61697;BME280;47610;52.252;20.922;2023-02-28T23:43:55;101561.13;;;-2.42;100.00
61697;BME280;47610;52.252;20.922;2023-02-28T23:49:00;101562.91;;;-2.42;100.00
61697;BME280;47610;52.252;20.922;2023-02-28T23:54:06;101578.77;;;-2.42;100.00
61697;BME280;47610;52.252;20.922;2023-02-28T23:59:14;101577.98;;;-2.41;100.00
